Time;durP1;ratioP1;P1;durP2;ratioP2;P2;SDS_P1;SDS_P2;PMS_P1;PMS_P2;Temp;Humidity;BMP_temperature;BMP_pressure;BME280_temperature;BME280_humidity;BME280_pressure;Samples;Min_cycle;Max_cycle;Signal;HPM_P1;HPM_P2
2023/06/04 00:00:15;;;;;;;3.42;2.35;;;16.80;99.90;;;;;;1894841;75;21200;-78
2023/06/04 00:03:06;;;;;;;2.72;1.90;;;16.80;99.90;;;;;;1909370;75;21062;-78
2023/06/04 00:05:58;;;;;;;4.83;2.00;;;16.80;99.90;;;;;;1906189;75;21066;-78
2023/06/04 00:08:49;;;;;;;3.22;2.05;;;16.80;99.90;;;;;;1903223;75;21078;-78
2023/06/04 00:11:45;;;;;;;3.58;2.12;;;16.90;99.90;;;;;;1884194;76;21121;-78
2023/06/04 00:14:36;;;;;;;2.25;1.95;;;17.00;99.90;;;;;;1883388;75;21187;-78
2023/06/04 00:17:28;;;;;;;2.20;1.95;;;17.00;99.90;;;;;;1884176;75;21088;-78
2023/06/04 00:20:20;;;;;;;5.28;2.10;;;16.90;99.90;;;;;;1893316;75;21107;-78
2023/06/04 00:23:19;;;;;;;4.22;2.50;;;16.80;99.90;;;;;;1898709;75;21363;-78
2023/06/04 00:26:12;;;;;;;2.70;2.20;;;16.80;99.90;;;;;;1883651;75;21062;-78
2023/06/04 00:29:06;;;;;;;3.35;2.52;;;16.80;99.90;;;;;;1896072;75;21657;-78
2023/06/04 00:32:11;;;;;;;3.95;2.50;;;16.80;99.90;;;;;;1912755;74;21126;-78
2023/06/04 00:37:50;;;;;;;2.95;2.17;;;16.60;99.90;;;;;;1943070;72;22185;-78
2023/06/04 00:40:49;;;;;;;3.60;2.67;;;16.40;99.90;;;;;;1908622;75;21214;-77
2023/06/04 00:43:45;;;;;;;3.17;2.40;;;16.30;99.90;;;;;;1915896;75;21143;-77
2023/06/04 00:46:35;;;;;;;4.92;4.10;;;16.40;99.90;;;;;;1912681;75;21164;-77
2023/06/04 00:49:29;;;;;;;4.17;2.98;;;16.40;99.90;;;;;;1896286;75;21047;-77
2023/06/04 00:52:21;;;;;;;3.45;2.87;;;16.50;99.90;;;;;;1915383;75;21171;-77
2023/06/04 00:55:13;;;;;;;4.20;2.75;;;16.50;99.90;;;;;;1914604;73;21156;-77
2023/06/04 00:58:05;;;;;;;5.92;2.77;;;16.60;99.90;;;;;;1917120;75;21172;-77
2023/06/04 01:00:57;;;;;;;4.47;2.58;;;16.60;99.90;;;;;;1898944;75;21498;-77
2023/06/04 01:03:52;;;;;;;3.55;2.42;;;16.60;99.90;;;;;;1915736;75;21128;-77
2023/06/04 01:06:47;;;;;;;4.30;2.55;;;16.60;99.90;;;;;;1915678;75;21098;-77
2023/06/04 01:09:39;;;;;;;3.35;2.72;;;16.50;99.90;;;;;;1915713;75;21183;-77
2023/06/04 01:12:30;;;;;;;6.17;3.10;;;16.60;99.90;;;;;;1915102;75;21123;-78
2023/06/04 01:15:22;;;;;;;3.40;3.10;;;16.60;99.90;;;;;;1915445;75;21119;-78
2023/06/04 01:18:27;;;;;;;3.67;2.95;;;16.60;99.90;;;;;;1914454;75;21526;-78
2023/06/04 01:21:12;;;;;;;4.53;3.10;;;16.60;99.90;;;;;;1915989;75;21173;-78
2023/06/04 01:24:06;;;;;;;4.33;3.27;;;16.60;99.90;;;;;;1916050;75;21103;-78
2023/06/04 01:26:58;;;;;;;3.58;3.10;;;16.60;99.90;;;;;;1915669;75;21148;-78
2023/06/04 01:29:51;;;;;;;3.77;2.95;;;16.60;99.90;;;;;;1915709;75;21652;-78
2023/06/04 01:32:43;;;;;;;4.58;2.50;;;16.60;99.90;;;;;;1915971;75;21059;-78
2023/06/04 01:35:35;;;;;;;3.50;2.60;;;16.60;99.90;;;;;;1898234;75;21167;-78
2023/06/04 01:38:26;;;;;;;3.60;2.62;;;16.60;99.90;;;;;;1925061;74;21081;-78
2023/06/04 01:41:18;;;;;;;2.70;2.50;;;16.70;99.90;;;;;;1926155;74;21055;-78
2023/06/04 01:44:10;;;;;;;4.12;2.58;;;16.60;99.90;;;;;;1914212;74;21098;-78
2023/06/04 01:47:02;;;;;;;2.58;2.02;;;16.50;99.90;;;;;;1909061;74;21093;-78
2023/06/04 01:49:53;;;;;;;2.77;2.58;;;16.50;99.90;;;;;;1915442;74;21381;-78
2023/06/04 01:52:45;;;;;;;2.83;2.62;;;16.50;99.90;;;;;;1925498;74;21117;-78
2023/06/04 01:55:37;;;;;;;5.42;3.12;;;16.50;99.90;;;;;;1925246;74;21595;-78
2023/06/04 01:58:31;;;;;;;2.83;2.62;;;16.40;99.90;;;;;;1924642;74;21169;-78
2023/06/04 02:01:23;;;;;;;4.40;3.08;;;16.40;99.90;;;;;;1906393;74;21107;-78
2023/06/04 02:04:15;;;;;;;4.67;2.95;;;16.40;99.90;;;;;;1924993;74;21090;-78
2023/06/04 02:07:08;;;;;;;2.70;2.47;;;16.40;99.90;;;;;;1924963;74;21079;-78
2023/06/04 02:09:59;;;;;;;3.08;2.25;;;16.40;99.90;;;;;;1926085;74;21105;-78
2023/06/04 02:13:00;;;;;;;4.70;2.85;;;16.40;99.90;;;;;;1904679;75;21113;-78
2023/06/04 02:15:52;;;;;;;5.37;2.65;;;16.40;99.90;;;;;;1922332;74;21080;-78
2023/06/04 02:18:43;;;;;;;3.58;2.77;;;16.40;99.90;;;;;;1920223;74;21160;-78
2023/06/04 02:21:35;;;;;;;6.62;2.72;;;16.40;99.90;;;;;;1924808;74;21229;-78
2023/06/04 02:24:27;;;;;;;4.40;2.83;;;16.40;99.90;;;;;;1922218;74;21079;-77
2023/06/04 02:27:18;;;;;;;4.28;2.45;;;16.40;99.90;;;;;;1924000;74;21120;-77
2023/06/04 02:30:12;;;;;;;2.87;2.22;;;16.40;99.90;;;;;;1920098;74;21091;-77
2023/06/04 02:33:03;;;;;;;2.27;2.08;;;16.40;99.90;;;;;;1925397;74;21087;-77
2023/06/04 02:35:55;;;;;;;4.80;2.70;;;16.30;99.90;;;;;;1924476;74;21578;-77
2023/06/04 02:38:47;;;;;;;4.83;2.08;;;16.30;99.90;;;;;;1920527;74;21188;-77
2023/06/04 02:41:39;;;;;;;2.80;1.98;;;16.20;99.90;;;;;;1924965;74;21141;-77
2023/06/04 02:47:11;;;;;;;4.15;2.30;;;16.20;99.90;;;;;;1940710;72;22200;-78
2023/06/04 02:50:03;;;;;;;5.55;2.10;;;16.30;99.90;;;;;;1884206;76;21117;-78
2023/06/04 02:52:54;;;;;;;2.52;2.02;;;16.30;99.90;;;;;;1914816;74;21129;-78
2023/06/04 02:55:46;;;;;;;3.17;2.08;;;16.30;99.90;;;;;;1887017;74;21683;-78
2023/06/04 02:58:40;;;;;;;3.72;2.27;;;16.30;99.90;;;;;;1911140;74;21546;-78
2023/06/04 03:01:32;;;;;;;5.87;2.12;;;16.30;99.90;;;;;;1904869;75;21216;-78
2023/06/04 03:04:23;;;;;;;2.72;2.30;;;16.20;99.90;;;;;;1918273;74;21159;-78
2023/06/04 03:07:15;;;;;;;2.75;2.42;;;16.20;99.90;;;;;;1908936;74;21209;-78
2023/06/04 03:10:08;;;;;;;3.95;2.05;;;16.20;99.90;;;;;;1916794;74;21161;-78
2023/06/04 03:13:00;;;;;;;4.17;2.40;;;16.20;99.90;;;;;;1896683;75;21126;-78
2023/06/04 03:15:55;;;;;;;3.00;2.20;;;16.20;99.90;;;;;;1909945;74;21054;-78
2023/06/04 03:18:45;;;;;;;3.50;2.30;;;16.20;99.90;;;;;;1919341;74;21114;-78
2023/06/04 03:21:39;;;;;;;5.10;2.30;;;16.20;99.90;;;;;;1916571;74;21621;-78
2023/06/04 03:24:30;;;;;;;3.42;2.10;;;16.20;99.90;;;;;;1893454;74;21131;-78
2023/06/04 03:27:23;;;;;;;2.47;1.70;;;16.10;99.90;;;;;;1923069;74;21094;-78
2023/06/04 03:30:15;;;;;;;2.55;2.35;;;16.10;99.90;;;;;;1918817;74;21116;-78
2023/06/04 03:33:10;;;;;;;2.15;1.77;;;16.00;99.90;;;;;;1921364;74;21109;-78
2023/06/04 03:36:02;;;;;;;3.02;2.02;;;16.00;99.90;;;;;;1909957;74;21063;-78
2023/06/04 03:38:53;;;;;;;2.52;1.80;;;16.00;99.90;;;;;;1900180;75;21136;-78
2023/06/04 03:41:45;;;;;;;2.65;2.20;;;16.00;99.90;;;;;;1923323;74;21105;-78
2023/06/04 03:44:37;;;;;;;2.90;2.42;;;16.00;99.90;;;;;;1906473;74;21079;-78
2023/06/04 03:47:30;;;;;;;4.58;2.42;;;16.10;99.90;;;;;;1918678;74;21589;-78
2023/06/04 03:50:22;;;;;;;4.05;2.45;;;16.10;99.90;;;;;;1830650;77;21199;-78
2023/06/04 03:53:15;;;;;;;3.35;2.20;;;16.10;99.90;;;;;;1904332;75;21138;-82
2023/06/04 03:56:07;;;;;;;8.20;2.40;;;16.10;99.90;;;;;;1914327;74;21102;-82
2023/06/04 03:59:00;;;;;;;3.20;2.10;;;16.10;99.90;;;;;;1911988;74;21590;-82
2023/06/04 04:01:51;;;;;;;3.52;2.42;;;16.10;99.90;;;;;;1921949;74;21557;-82
2023/06/04 04:04:43;;;;;;;4.60;2.52;;;16.10;99.90;;;;;;1883930;76;21171;-82
2023/06/04 04:07:34;;;;;;;3.55;2.27;;;16.10;99.90;;;;;;1917943;74;21146;-82
2023/06/04 04:13:12;;;;;;;3.10;2.80;;;16.00;99.90;;;;;;1955384;72;22093;-82
2023/06/04 04:16:05;;;;;;;2.60;2.40;;;16.00;99.90;;;;;;1929410;73;21082;-83
2023/06/04 04:18:57;;;;;;;3.05;2.67;;;16.10;99.90;;;;;;1917007;75;21142;-83
2023/06/04 04:21:49;;;;;;;3.95;2.40;;;16.10;99.90;;;;;;1916761;75;21070;-82
2023/06/04 04:24:41;;;;;;;2.87;2.58;;;16.10;99.90;;;;;;1916882;75;21090;-82
2023/06/04 04:27:38;;;;;;;8.95;2.37;;;16.10;99.90;;;;;;1934061;73;21097;-82
2023/06/04 04:30:29;;;;;;;2.30;2.10;;;16.10;99.90;;;;;;1927916;73;21183;-82
2023/06/04 04:33:21;;;;;;;2.25;1.87;;;16.10;99.90;;;;;;1939607;73;21126;-82
2023/06/04 04:36:13;;;;;;;3.67;2.00;;;16.00;99.90;;;;;;1917903;73;21059;-82
2023/06/04 04:39:06;;;;;;;2.72;2.05;;;15.80;99.90;;;;;;1925574;74;21114;-82
2023/06/04 04:41:58;;;;;;;2.25;2.02;;;15.70;99.90;;;;;;1917049;75;21195;-82
2023/06/04 04:44:51;;;;;;;4.60;2.47;;;15.90;99.90;;;;;;1916910;75;21247;-82
2023/06/04 04:47:45;;;;;;;3.10;2.33;;;15.90;99.90;;;;;;1917011;75;21164;-82
2023/06/04 04:50:37;;;;;;;5.85;2.65;;;15.80;99.90;;;;;;1917071;75;21102;-82
2023/06/04 04:53:29;;;;;;;2.70;2.22;;;15.90;99.90;;;;;;1917088;75;21128;-82
2023/06/04 04:56:25;;;;;;;2.85;2.40;;;15.90;99.90;;;;;;1917090;75;21565;-82
2023/06/04 04:59:17;;;;;;;2.60;1.75;;;15.80;99.90;;;;;;1886823;75;21098;-82
2023/06/04 05:02:08;;;;;;;2.90;2.20;;;15.90;99.90;;;;;;1917019;75;21153;-82
2023/06/04 05:05:00;;;;;;;3.52;2.00;;;16.00;99.90;;;;;;1917112;75;21095;-82
2023/06/04 05:07:52;;;;;;;2.58;2.10;;;16.00;99.90;;;;;;1917105;75;21602;-82
2023/06/04 05:10:45;;;;;;;4.75;2.17;;;16.00;99.90;;;;;;1916926;75;21166;-82
2023/06/04 05:13:36;;;;;;;4.08;2.60;;;16.10;99.90;;;;;;1931800;74;21191;-82
2023/06/04 05:16:29;;;;;;;4.80;2.30;;;16.20;99.90;;;;;;1931152;73;21180;-82
2023/06/04 05:19:22;;;;;;;3.65;2.27;;;16.30;99.90;;;;;;1904761;75;21645;-82
2023/06/04 05:22:15;;;;;;;3.72;2.50;;;16.30;99.90;;;;;;1904599;75;21052;-82
2023/06/04 05:25:09;;;;;;;3.30;2.52;;;16.30;99.90;;;;;;1916367;75;21115;-82
2023/06/04 05:28:00;;;;;;;2.95;2.10;;;16.40;99.90;;;;;;1916273;75;21101;-82
2023/06/04 05:30:53;;;;;;;4.70;2.83;;;16.50;99.90;;;;;;1913278;74;21102;-82
2023/06/04 05:33:44;;;;;;;4.95;2.60;;;16.60;99.90;;;;;;1927414;73;21168;-82
2023/06/04 05:36:39;;;;;;;5.17;2.60;;;16.60;99.90;;;;;;1908431;74;21150;-82
2023/06/04 05:39:30;;;;;;;4.50;2.12;;;16.70;99.90;;;;;;1916445;75;21217;-82
2023/06/04 05:42:24;;;;;;;3.00;2.22;;;16.80;99.90;;;;;;1916495;73;21062;-82
2023/06/04 05:45:16;;;;;;;2.47;2.20;;;16.80;99.90;;;;;;1929979;73;21098;-82
2023/06/04 05:48:08;;;;;;;3.05;2.22;;;16.80;99.90;;;;;;1906618;74;21067;-82
2023/06/04 05:51:00;;;;;;;2.98;2.65;;;16.80;99.90;;;;;;1915995;73;21164;-83
2023/06/04 05:53:51;;;;;;;4.20;2.52;;;16.90;99.90;;;;;;1916243;75;21117;-82
2023/06/04 05:56:43;;;;;;;2.65;2.45;;;16.80;99.90;;;;;;1904139;75;21047;-82
2023/06/04 05:59:35;;;;;;;2.60;2.33;;;16.80;99.90;;;;;;1916369;75;21148;-82
2023/06/04 06:02:28;;;;;;;3.10;2.20;;;16.90;99.90;;;;;;1904119;75;21094;-82
2023/06/04 06:05:20;;;;;;;3.47;2.40;;;17.00;99.90;;;;;;1916382;75;21189;-83
2023/06/04 06:08:12;;;;;;;2.77;2.40;;;17.10;99.90;;;;;;1918261;73;21532;-83
2023/06/04 06:11:05;;;;;;;3.62;2.52;;;17.10;99.90;;;;;;1916057;75;21599;-82
2023/06/04 06:13:58;;;;;;;2.87;2.02;;;17.20;99.90;;;;;;1929014;73;21115;-82
2023/06/04 06:16:51;;;;;;;2.65;2.02;;;17.30;99.90;;;;;;1929914;74;21546;-82
2023/06/04 06:19:42;;;;;;;2.27;2.08;;;17.50;99.90;;;;;;1894680;75;21066;-82
2023/06/04 06:22:34;;;;;;;2.65;2.08;;;17.50;99.90;;;;;;1898173;74;21182;-82
2023/06/04 06:25:28;;;;;;;5.05;2.42;;;17.60;99.90;;;;;;1902603;75;21070;-82
2023/06/04 06:28:21;;;;;;;2.55;1.98;;;17.60;99.90;;;;;;1902621;75;21098;-82
2023/06/04 06:31:13;;;;;;;3.05;2.00;;;17.60;99.90;;;;;;1900705;75;21605;-81
2023/06/04 06:34:05;;;;;;;2.83;1.95;;;17.70;99.90;;;;;;1897797;75;21140;-74
2023/06/04 06:36:57;;;;;;;3.45;2.10;;;17.80;99.90;;;;;;1929918;74;21632;-75
2023/06/04 06:39:48;;;;;;;3.80;2.33;;;17.90;99.90;;;;;;1930166;74;21648;-76
2023/06/04 06:42:39;;;;;;;1.98;1.75;;;18.00;99.90;;;;;;1930227;74;21120;-75
2023/06/04 06:45:31;;;;;;;2.72;1.67;;;18.00;99.90;;;;;;1908197;74;21098;-75
2023/06/04 06:48:22;;;;;;;2.75;2.30;;;18.20;99.90;;;;;;1900588;74;21538;-75
2023/06/04 06:51:14;;;;;;;4.25;2.27;;;18.30;99.90;;;;;;1924818;74;21056;-75
2023/06/04 06:54:05;;;;;;;2.52;2.33;;;18.40;99.90;;;;;;1930261;74;21357;-76
2023/06/04 06:56:57;;;;;;;3.37;2.37;;;18.50;99.90;;;;;;1928508;74;21201;-75
2023/06/04 06:59:51;;;;;;;3.65;2.33;;;18.50;99.90;;;;;;1894552;75;21562;-76
2023/06/04 07:02:42;;;;;;;3.70;2.45;;;18.60;99.90;;;;;;1882590;75;21110;-75
2023/06/04 07:05:33;;;;;;;3.10;2.50;;;18.70;99.90;;;;;;1912375;74;21113;-75
2023/06/04 07:08:25;;;;;;;3.62;2.52;;;18.90;99.90;;;;;;1926183;74;21091;-77
2023/06/04 07:11:18;;;;;;;2.52;2.33;;;18.90;99.90;;;;;;1901639;74;21037;-75
2023/06/04 07:14:09;;;;;;;3.12;2.40;;;19.00;99.90;;;;;;1913625;74;21425;-75
2023/06/04 07:17:01;;;;;;;4.67;2.62;;;19.00;99.90;;;;;;1913553;75;21105;-75
2023/06/04 07:19:53;;;;;;;4.78;2.67;;;19.10;99.90;;;;;;1899629;75;21063;-75
2023/06/04 07:25:25;;;;;;;3.05;2.40;;;19.20;99.90;;;;;;1932993;72;22217;-75
2023/06/04 07:28:16;;;;;;;3.20;2.67;;;19.30;99.90;;;;;;1896630;74;21184;-75
2023/06/04 07:31:07;;;;;;;2.60;2.35;;;19.40;99.90;;;;;;1899005;75;21129;-75
2023/06/04 07:33:59;;;;;;;2.55;2.33;;;19.60;99.90;;;;;;1898958;75;21110;-75
2023/06/04 07:36:50;;;;;;;4.08;2.42;;;19.70;99.90;;;;;;1893507;75;21099;-76
2023/06/04 07:39:41;;;;;;;5.15;2.80;;;19.80;99.90;;;;;;1906012;75;21114;-76
2023/06/04 07:45:12;;;;;;;3.60;2.35;;;19.90;99.90;;;;;;1943317;72;22218;-75
2023/06/04 07:50:42;;;;;;;4.00;2.55;;;20.10;99.90;;;;;;1943623;72;22220;-75
2023/06/04 07:56:12;;;;;;;2.58;2.17;;;20.10;99.90;;;;;;1934619;72;22283;-75
2023/06/04 08:01:43;;;;;;;5.78;2.15;;;20.50;99.90;;;;;;1931215;72;22146;-75
2023/06/04 08:04:34;;;;;;;2.75;2.42;;;20.70;99.90;;;;;;1913004;74;21321;-75
2023/06/04 08:10:06;;;;;;;2.45;2.15;;;21.10;99.90;;;;;;1933563;72;22209;-76
2023/06/04 08:15:37;;;;;;;2.22;2.00;;;21.20;99.90;;;;;;1916428;72;22161;-75
2023/06/04 08:21:07;;;;;;;4.55;2.25;;;21.00;99.90;;;;;;1949716;72;22281;-75
2023/06/04 08:23:59;;;;;;;3.55;2.22;;;20.90;99.90;;;;;;1928520;73;21058;-75
2023/06/04 08:29:29;;;;;;;2.05;1.85;;;20.80;99.90;;;;;;1940301;72;22267;-76
2023/06/04 08:35:02;;;;;;;2.10;1.90;;;21.00;99.90;;;;;;1960273;72;22194;-75
2023/06/04 08:40:35;;;;;;;2.62;2.20;;;21.20;99.90;;;;;;1934035;72;22298;-80
2023/06/04 08:43:26;;;;;;;3.12;2.10;;;21.30;99.90;;;;;;1911232;74;21090;-82
2023/06/04 08:46:18;;;;;;;2.20;1.95;;;21.50;99.90;;;;;;1903446;75;21126;-84
2023/06/04 08:49:12;;;;;;;3.67;2.27;;;21.50;99.90;;;;;;1917189;75;21179;-79
2023/06/04 08:52:03;;;;;;;1.90;1.70;;;21.50;99.90;;;;;;1901708;75;21063;-80
2023/06/04 08:54:56;;;;;;;4.47;2.00;;;21.60;99.90;;;;;;1884382;76;21113;-80
2023/06/04 08:57:48;;;;;;;3.05;2.00;;;21.60;99.90;;;;;;1905986;75;21067;-80
2023/06/04 09:00:39;;;;;;;3.33;2.02;;;21.70;99.90;;;;;;1905777;75;21104;-81
2023/06/04 09:03:35;;;;;;;3.85;1.82;;;21.80;99.90;;;;;;1903913;75;21135;-80
2023/06/04 09:06:28;;;;;;;2.30;2.08;;;22.20;99.90;;;;;;1898891;75;21627;-81
2023/06/04 09:09:22;;;;;;;1.72;1.50;;;22.40;99.90;;;;;;1892153;75;21098;-74
2023/06/04 09:12:17;;;;;;;2.20;2.00;;;22.40;99.90;;;;;;1910949;75;21150;-74
2023/06/04 09:15:11;;;;;;;2.77;1.62;;;22.50;99.90;;;;;;1906223;75;21195;-74
2023/06/04 09:18:02;;;;;;;1.70;1.60;;;22.70;99.90;;;;;;1902901;75;21091;-74
2023/06/04 09:21:03;;;;;;;2.45;1.77;;;22.80;99.90;;;;;;1909381;75;21059;-74
2023/06/04 09:23:55;;;;;;;2.72;1.60;;;22.80;99.90;;;;;;1898771;75;21088;-74
2023/06/04 09:26:47;;;;;;;1.90;1.60;;;23.00;99.90;;;;;;1908628;75;21105;-74
2023/06/04 09:29:38;;;;;;;2.83;1.40;;;23.00;99.90;;;;;;1893822;75;21113;-74
2023/06/04 09:32:31;;;;;;;1.32;1.22;;;22.80;99.90;;;;;;1907342;75;21160;-74
2023/06/04 09:35:22;;;;;;;1.67;1.57;;;22.70;99.90;;;;;;1897173;75;21179;-74
2023/06/04 09:38:13;;;;;;;3.05;1.57;;;22.60;99.90;;;;;;1900687;75;21058;-74
2023/06/04 09:41:08;;;;;;;1.75;1.42;;;22.70;99.90;;;;;;1921238;74;21257;-74
2023/06/04 09:46:41;;;;;;;3.30;1.42;;;22.40;99.90;;;;;;1936106;72;22367;-74
2023/06/04 09:49:42;;;;;;;2.80;1.67;;;22.30;99.90;;;;;;1899335;75;21082;-73
2023/06/04 09:55:22;;;;;;;1.65;1.55;;;22.70;99.90;;;;;;1970020;72;22149;-74
2023/06/04 09:58:14;;;;;;;1.92;1.50;;;22.70;99.90;;;;;;1926486;73;21125;-74
2023/06/04 10:01:06;;;;;;;1.42;1.32;;;22.90;99.90;;;;;;1917037;75;21153;-74
2023/06/04 10:04:00;;;;;;;1.72;1.25;;;22.90;99.90;;;;;;1923378;73;21177;-74
2023/06/04 10:06:53;;;;;;;1.70;1.60;;;23.00;99.90;;;;;;1939161;73;21103;-74
2023/06/04 10:09:46;;;;;;;2.92;1.47;;;22.80;99.90;;;;;;1916713;75;21128;-74
2023/06/04 10:12:39;;;;;;;2.12;1.32;;;22.80;99.90;;;;;;1921000;73;21098;-75
2023/06/04 10:15:34;;;;;;;1.70;1.47;;;22.90;99.90;;;;;;1932725;73;21187;-74
2023/06/04 10:18:25;;;;;;;1.87;1.25;;;23.00;99.90;;;;;;1917015;75;21058;-74
2023/06/04 10:21:18;;;;;;;4.12;1.40;;;23.00;99.90;;;;;;1916781;75;21103;-74
2023/06/04 10:24:10;;;;;;;1.62;1.47;;;23.00;99.90;;;;;;1916890;75;21113;-74
2023/06/04 10:29:40;;;;;;;1.50;1.40;;;23.20;99.90;;;;;;1955732;72;22270;-74
2023/06/04 10:32:31;;;;;;;1.70;1.60;;;23.00;99.90;;;;;;1918079;74;21184;-74
2023/06/04 10:35:32;;;;;;;1.45;1.32;;;22.90;99.90;;;;;;1916995;75;21175;-76
2023/06/04 10:38:24;;;;;;;2.47;1.57;;;23.00;99.90;;;;;;1900452;75;21117;-75
2023/06/04 10:41:16;;;;;;;2.92;1.57;;;23.00;99.90;;;;;;1896629;75;21106;-76
2023/06/04 10:44:08;;;;;;;1.60;1.50;;;23.10;99.90;;;;;;1917034;75;21094;-75
2023/06/04 10:47:00;;;;;;;1.72;1.62;;;23.10;99.90;;;;;;1916906;75;21102;-80
2023/06/04 10:49:53;;;;;;;1.70;1.60;;;23.10;99.90;;;;;;1903122;75;21090;-80
2023/06/04 10:52:54;;;;;;;2.80;1.60;;;23.10;99.90;;;;;;1916817;75;21164;-80
2023/06/04 10:55:47;;;;;;;2.00;1.50;;;23.20;99.90;;;;;;1895185;75;21105;-80
2023/06/04 10:58:39;;;;;;;1.50;1.40;;;23.40;99.90;;;;;;1917135;75;21523;-80
2023/06/04 11:01:31;;;;;;;1.75;1.55;;;23.60;99.90;;;;;;1917026;75;21091;-80
2023/06/04 11:07:08;;;;;;;2.20;1.57;;;23.70;99.90;;;;;;1953103;72;22235;-80
2023/06/04 11:10:01;;;;;;;1.98;1.40;;;23.90;99.90;;;;;;1902729;75;21098;-80
2023/06/04 11:12:52;;;;;;;1.57;1.47;;;24.20;99.90;;;;;;1897895;75;21095;-75
2023/06/04 11:15:48;;;;;;;1.62;1.52;;;24.20;99.90;;;;;;1894943;75;21159;-75
2023/06/04 11:18:40;;;;;;;1.98;1.62;;;24.10;99.90;;;;;;1895470;75;21126;-76
2023/06/04 11:21:31;;;;;;;1.90;1.65;;;24.10;99.90;;;;;;1895606;75;21118;-75
2023/06/04 11:24:25;;;;;;;2.47;1.62;;;24.30;99.90;;;;;;1900702;75;21090;-75
2023/06/04 11:27:16;;;;;;;2.17;1.70;;;24.40;99.90;;;;;;1884230;75;21102;-75
2023/06/04 11:30:12;;;;;;;3.10;1.80;;;24.60;99.90;;;;;;1905910;75;21110;-76
2023/06/04 11:33:04;;;;;;;1.92;1.57;;;24.60;99.90;;;;;;1906336;75;21080;-75
2023/06/04 11:35:56;;;;;;;1.85;1.70;;;24.80;99.90;;;;;;1903772;75;21109;-75
2023/06/04 11:39:00;;;;;;;1.85;1.65;;;25.00;99.90;;;;;;1898515;75;21106;-75
2023/06/04 11:41:53;;;;;;;1.70;1.60;;;25.10;99.90;;;;;;1896392;75;21123;-75
2023/06/04 11:44:48;;;;;;;2.40;1.85;;;25.20;99.90;;;;;;1887107;75;21134;-75
2023/06/04 11:47:38;;;;;;;2.12;1.87;;;25.20;99.90;;;;;;1906074;75;21101;-75
2023/06/04 11:50:31;;;;;;;2.98;1.42;;;25.30;99.90;;;;;;1903767;75;21095;-75
2023/06/04 11:53:23;;;;;;;1.87;1.77;;;25.50;99.90;;;;;;1899275;75;21176;-75
2023/06/04 11:56:15;;;;;;;2.00;1.77;;;25.50;99.90;;;;;;1894849;75;21614;-75
2023/06/04 11:59:06;;;;;;;3.02;1.67;;;25.50;99.90;;;;;;1894641;75;21179;-75
2023/06/04 12:01:58;;;;;;;3.45;1.75;;;25.60;99.90;;;;;;1896182;75;21109;-75
2023/06/04 12:04:49;;;;;;;3.50;2.00;;;25.90;99.90;;;;;;1884082;76;21063;-75
2023/06/04 12:07:41;;;;;;;1.92;1.72;;;25.70;99.90;;;;;;1914883;74;21609;-76
2023/06/04 12:10:38;;;;;;;2.83;1.85;;;25.60;99.90;;;;;;1915752;74;21164;-75
2023/06/04 12:13:31;;;;;;;2.08;1.72;;;25.60;99.90;;;;;;1914993;74;21124;-75
2023/06/04 12:16:22;;;;;;;1.92;1.62;;;25.70;99.90;;;;;;1909066;74;21542;-75
2023/06/04 12:19:14;;;;;;;2.67;1.85;;;25.90;99.90;;;;;;1904022;74;21062;-75
2023/06/04 12:22:07;;;;;;;2.27;1.67;;;26.30;99.90;;;;;;1903699;74;21216;-75
2023/06/04 12:25:02;;;;;;;1.82;1.52;;;26.60;99.90;;;;;;1903582;74;21062;-82
2023/06/04 12:27:52;;;;;;;2.02;1.70;;;26.80;99.90;;;;;;1908038;74;21109;-79
2023/06/04 12:30:43;;;;;;;1.52;1.42;;;26.70;99.90;;;;;;1905429;74;21180;-79
2023/06/04 12:36:14;;;;;;;1.50;1.40;;;26.90;99.90;;;;;;1945278;72;22167;-79
2023/06/04 12:41:48;;;;;;;1.62;1.52;;;27.20;99.90;;;;;;1945029;72;22235;-79
2023/06/04 12:44:41;;;;;;;2.87;1.67;;;27.20;99.90;;;;;;1908316;73;21130;-78
2023/06/04 12:47:31;;;;;;;2.05;1.65;;;27.30;99.90;;;;;;1910721;75;21099;-78
2023/06/04 12:50:23;;;;;;;2.00;1.30;;;27.20;99.90;;;;;;1913734;75;21111;-78
2023/06/04 12:53:14;;;;;;;1.30;1.20;;;26.90;99.90;;;;;;1888048;75;21062;-78
2023/06/04 12:56:06;;;;;;;1.90;1.55;;;26.60;99.90;;;;;;1885900;75;21187;-78
2023/06/04 12:58:58;;;;;;;2.10;1.70;;;26.10;99.90;;;;;;1889621;75;21193;-78
2023/06/04 13:01:49;;;;;;;2.00;1.50;;;26.00;99.90;;;;;;1915388;75;21140;-78
2023/06/04 13:04:44;;;;;;;1.72;1.42;;;26.50;99.90;;;;;;1903219;75;21152;-78
2023/06/04 13:07:35;;;;;;;1.37;1.27;;;26.90;99.90;;;;;;1905426;75;21612;-78
2023/06/04 13:10:26;;;;;;;1.50;1.20;;;26.30;99.90;;;;;;1905527;74;21156;-78
2023/06/04 13:13:17;;;;;;;2.22;1.42;;;26.00;99.90;;;;;;1897633;75;21201;-78
2023/06/04 13:16:10;;;;;;;1.70;1.17;;;26.00;99.90;;;;;;1897175;75;21096;-78
2023/06/04 13:19:01;;;;;;;1.85;1.00;;;26.20;99.90;;;;;;1886670;75;21200;-79
2023/06/04 13:21:53;;;;;;;1.12;0.90;;;26.30;99.90;;;;;;1898733;75;21108;-79
2023/06/04 13:24:44;;;;;;;1.35;1.00;;;26.00;99.90;;;;;;1904600;75;21067;-79
2023/06/04 13:27:36;;;;;;;1.17;1.00;;;25.70;99.90;;;;;;1892505;75;21552;-79
2023/06/04 13:30:27;;;;;;;2.65;1.30;;;25.20;99.90;;;;;;1894325;75;21575;-79
2023/06/04 13:33:21;;;;;;;1.60;1.32;;;25.50;99.90;;;;;;1889896;75;21138;-79
2023/06/04 13:36:12;;;;;;;2.12;1.40;;;25.50;99.90;;;;;;1904824;75;21522;-79
2023/06/04 13:39:04;;;;;;;2.60;1.45;;;25.50;99.90;;;;;;1884227;75;21094;-78
2023/06/04 13:41:56;;;;;;;2.02;1.80;;;25.70;99.90;;;;;;1905871;74;21118;-79
2023/06/04 13:44:48;;;;;;;2.00;1.60;;;25.90;99.90;;;;;;1904477;74;21103;-78
2023/06/04 13:47:39;;;;;;;2.05;1.82;;;26.20;99.90;;;;;;1900185;74;21181;-78
2023/06/04 13:53:12;;;;;;;2.10;1.87;;;26.60;99.90;;;;;;1929559;72;22209;-78
2023/06/04 13:58:43;;;;;;;2.52;2.27;;;26.60;99.90;;;;;;1957742;72;22186;-78
2023/06/04 14:01:34;;;;;;;4.60;2.47;;;26.40;99.90;;;;;;1906415;74;21126;-78
2023/06/04 14:04:26;;;;;;;2.98;2.12;;;26.30;99.90;;;;;;1903074;75;21122;-78
2023/06/04 14:07:17;;;;;;;3.52;2.10;;;26.10;99.90;;;;;;1905960;74;21209;-78
2023/06/04 14:10:11;;;;;;;5.87;2.20;;;26.20;99.90;;;;;;1924506;74;21169;-78
2023/06/04 14:13:03;;;;;;;2.58;2.27;;;26.50;99.90;;;;;;1919213;74;21101;-78
2023/06/04 14:15:55;;;;;;;2.92;2.17;;;26.90;99.90;;;;;;1926744;74;21169;-78
2023/06/04 14:18:46;;;;;;;2.95;2.10;;;27.10;99.90;;;;;;1903892;75;21104;-78
2023/06/04 14:24:18;;;;;;;2.02;1.70;;;27.50;99.90;;;;;;1938913;72;22369;-78
2023/06/04 14:27:10;;;;;;;2.17;1.98;;;27.70;99.90;;;;;;1914431;75;21200;-78
2023/06/04 14:30:03;;;;;;;2.35;2.10;;;27.60;99.90;;;;;;1916262;75;21135;-78
2023/06/04 14:32:55;;;;;;;1.60;1.50;;;27.90;99.90;;;;;;1916193;75;21120;-78
2023/06/04 14:35:47;;;;;;;2.17;1.75;;;27.90;99.90;;;;;;1900178;75;21090;-78
2023/06/04 14:38:38;;;;;;;1.80;1.60;;;27.90;99.90;;;;;;1915941;75;21179;-78
2023/06/04 14:41:30;;;;;;;1.77;1.47;;;27.80;99.90;;;;;;1915811;75;21090;-78
2023/06/04 14:44:21;;;;;;;3.10;1.75;;;27.50;99.90;;;;;;1894136;75;21106;-78
2023/06/04 14:47:13;;;;;;;1.50;1.40;;;27.20;99.90;;;;;;1883914;75;21198;-78
2023/06/04 14:50:05;;;;;;;1.80;1.50;;;26.60;99.90;;;;;;1915116;75;21048;-78
2023/06/04 14:52:56;;;;;;;2.30;1.80;;;26.20;99.90;;;;;;1894038;75;21164;-78
2023/06/04 14:55:48;;;;;;;2.75;1.60;;;26.10;99.90;;;;;;1891132;75;21137;-78
2023/06/04 14:58:39;;;;;;;1.80;1.65;;;25.70;99.90;;;;;;1884516;75;21252;-78
2023/06/04 15:01:30;;;;;;;1.67;1.50;;;25.70;99.90;;;;;;1883754;76;21103;-78
2023/06/04 15:04:22;;;;;;;1.65;1.40;;;25.90;99.90;;;;;;1885873;75;21182;-78
2023/06/04 15:07:13;;;;;;;2.95;1.77;;;26.00;99.90;;;;;;1886093;75;21090;-79
2023/06/04 15:10:06;;;;;;;2.35;1.50;;;25.90;99.90;;;;;;1886250;75;21156;-79
2023/06/04 15:12:58;;;;;;;2.12;1.50;;;25.60;99.90;;;;;;1886100;75;21121;-79
2023/06/04 15:15:49;;;;;;;2.22;1.70;;;25.40;99.90;;;;;;1912072;75;21193;-79
2023/06/04 15:18:41;;;;;;;1.70;1.60;;;25.40;99.90;;;;;;1909229;75;21106;-78
2023/06/04 15:21:33;;;;;;;3.33;1.85;;;25.10;99.90;;;;;;1902046;75;21181;-79
2023/06/04 15:24:25;;;;;;;2.00;1.77;;;25.00;99.90;;;;;;1908970;74;21211;-79
2023/06/04 15:27:16;;;;;;;2.62;2.00;;;24.90;99.90;;;;;;1931821;74;21102;-79
2023/06/04 15:30:10;;;;;;;2.17;1.90;;;25.00;99.90;;;;;;1931852;74;22109;-79
2023/06/04 15:33:01;;;;;;;2.00;1.80;;;25.00;99.90;;;;;;1910422;74;21185;-79
2023/06/04 15:35:53;;;;;;;2.35;2.00;;;25.10;99.90;;;;;;1916354;74;21105;-79
2023/06/04 15:38:44;;;;;;;1.95;1.77;;;25.10;99.90;;;;;;1931599;74;21043;-79
2023/06/04 15:44:17;;;;;;;2.10;1.90;;;25.30;99.90;;;;;;1974711;72;22178;-78
2023/06/04 15:47:08;;;;;;;2.05;1.70;;;25.40;99.90;;;;;;1949183;73;21106;-78
2023/06/04 15:50:00;;;;;;;2.30;2.10;;;25.70;99.90;;;;;;1917559;73;21514;-78
2023/06/04 15:52:51;;;;;;;2.58;1.65;;;26.80;99.90;;;;;;1878308;76;21106;-78
2023/06/04 15:55:42;;;;;;;3.30;2.10;;;27.70;99.90;;;;;;1923680;73;21071;-78
2023/06/04 15:58:34;;;;;;;3.17;2.12;;;28.20;99.90;;;;;;1931080;73;21079;-78
2023/06/04 16:01:25;;;;;;;2.67;2.35;;;28.40;99.90;;;;;;1916568;75;21151;-78